sensor_id;sensor_type;location;lat;lon;timestamp;P1;durP1;ratioP1;P2;durP2;ratioP2
5428;SDS011;2737;52.386;9.980;2023-02-15T00:01:33;25.23;;;13.87;;
5428;SDS011;2737;52.386;9.980;2023-02-15T00:04:03;23.53;;;12.50;;
5428;SDS011;2737;52.386;9.980;2023-02-15T00:06:31;27.30;;;13.70;;
5428;SDS011;2737;52.386;9.980;2023-02-15T00:08:58;25.20;;;13.30;;
5428;SDS011;2737;52.386;9.980;2023-02-15T00:11:25;24.63;;;13.63;;
5428;SDS011;2737;52.386;9.980;2023-02-15T00:14:16;26.17;;;12.20;;
5428;SDS011;2737;52.386;9.980;2023-02-15T00:16:44;27.10;;;13.13;;
5428;SDS011;2737;52.386;9.980;2023-02-15T00:19:14;29.23;;;14.77;;
5428;SDS011;2737;52.386;9.980;2023-02-15T00:21:43;26.10;;;13.70;;
5428;SDS011;2737;52.386;9.980;2023-02-15T00:24:11;25.60;;;14.47;;
5428;SDS011;2737;52.386;9.980;2023-02-15T00:26:40;23.37;;;12.80;;
5428;SDS011;2737;52.386;9.980;2023-02-15T00:29:08;23.57;;;13.00;;
5428;SDS011;2737;52.386;9.980;2023-02-15T00:31:36;26.90;;;14.63;;
5428;SDS011;2737;52.386;9.980;2023-02-15T00:34:03;24.33;;;13.70;;
5428;SDS011;2737;52.386;9.980;2023-02-15T00:36:33;27.40;;;14.40;;
5428;SDS011;2737;52.386;9.980;2023-02-15T00:39:00;31.13;;;14.33;;
5428;SDS011;2737;52.386;9.980;2023-02-15T00:41:27;28.60;;;13.57;;
5428;SDS011;2737;52.386;9.980;2023-02-15T00:43:54;27.60;;;13.67;;
5428;SDS011;2737;52.386;9.980;2023-02-15T00:46:21;21.73;;;12.57;;
5428;SDS011;2737;52.386;9.980;2023-02-15T00:48:48;24.83;;;13.30;;
5428;SDS011;2737;52.386;9.980;2023-02-15T00:51:16;24.40;;;13.80;;
5428;SDS011;2737;52.386;9.980;2023-02-15T00:53:44;25.30;;;12.60;;
5428;SDS011;2737;52.386;9.980;2023-02-15T00:56:12;27.50;;;11.83;;
5428;SDS011;2737;52.386;9.980;2023-02-15T00:58:39;24.93;;;13.10;;
5428;SDS011;2737;52.386;9.980;2023-02-15T01:01:07;24.90;;;12.77;;
5428;SDS011;2737;52.386;9.980;2023-02-15T01:03:35;21.40;;;11.53;;
5428;SDS011;2737;52.386;9.980;2023-02-15T01:06:03;22.67;;;12.10;;
5428;SDS011;2737;52.386;9.980;2023-02-15T01:08:30;24.10;;;11.73;;
5428;SDS011;2737;52.386;9.980;2023-02-15T01:10:59;22.50;;;11.97;;
5428;SDS011;2737;52.386;9.980;2023-02-15T01:13:30;22.17;;;12.30;;
5428;SDS011;2737;52.386;9.980;2023-02-15T01:15:57;22.17;;;12.67;;
5428;SDS011;2737;52.386;9.980;2023-02-15T01:18:24;23.80;;;13.77;;
5428;SDS011;2737;52.386;9.980;2023-02-15T01:20:51;24.13;;;13.97;;
5428;SDS011;2737;52.386;9.980;2023-02-15T01:23:19;22.30;;;12.33;;
5428;SDS011;2737;52.386;9.980;2023-02-15T01:25:46;30.60;;;13.17;;
5428;SDS011;2737;52.386;9.980;2023-02-15T01:28:14;21.67;;;12.07;;
5428;SDS011;2737;52.386;9.980;2023-02-15T01:30:41;28.80;;;13.57;;
5428;SDS011;2737;52.386;9.980;2023-02-15T01:33:09;28.50;;;15.07;;
5428;SDS011;2737;52.386;9.980;2023-02-15T01:35:42;25.83;;;13.53;;
5428;SDS011;2737;52.386;9.980;2023-02-15T01:38:10;25.63;;;15.10;;
5428;SDS011;2737;52.386;9.980;2023-02-15T01:40:38;26.20;;;13.17;;
5428;SDS011;2737;52.386;9.980;2023-02-15T01:43:07;27.23;;;14.40;;
5428;SDS011;2737;52.386;9.980;2023-02-15T01:45:37;29.87;;;14.20;;
5428;SDS011;2737;52.386;9.980;2023-02-15T01:48:08;26.43;;;13.47;;
5428;SDS011;2737;52.386;9.980;2023-02-15T01:50:45;24.73;;;12.77;;
5428;SDS011;2737;52.386;9.980;2023-02-15T01:53:17;24.57;;;12.43;;
5428;SDS011;2737;52.386;9.980;2023-02-15T01:55:50;23.73;;;12.33;;
5428;SDS011;2737;52.386;9.980;2023-02-15T01:58:21;25.27;;;12.83;;
5428;SDS011;2737;52.386;9.980;2023-02-15T02:00:51;23.57;;;12.10;;
5428;SDS011;2737;52.386;9.980;2023-02-15T02:03:20;22.57;;;12.10;;
5428;SDS011;2737;52.386;9.980;2023-02-15T02:05:57;24.67;;;11.10;;
5428;SDS011;2737;52.386;9.980;2023-02-15T02:08:24;23.50;;;11.60;;
5428;SDS011;2737;52.386;9.980;2023-02-15T02:10:51;20.23;;;11.10;;
5428;SDS011;2737;52.386;9.980;2023-02-15T02:13:18;24.63;;;11.77;;
5428;SDS011;2737;52.386;9.980;2023-02-15T02:15:46;22.97;;;11.97;;
5428;SDS011;2737;52.386;9.980;2023-02-15T02:18:27;20.80;;;11.53;;
5428;SDS011;2737;52.386;9.980;2023-02-15T02:21:13;22.27;;;12.20;;
5428;SDS011;2737;52.386;9.980;2023-02-15T02:24:23;21.67;;;10.70;;
5428;SDS011;2737;52.386;9.980;2023-02-15T02:30:25;22.10;;;10.90;;
5428;SDS011;2737;52.386;9.980;2023-02-15T02:33:23;19.13;;;10.27;;
5428;SDS011;2737;52.386;9.980;2023-02-15T02:36:02;17.73;;;9.47;;
5428;SDS011;2737;52.386;9.980;2023-02-15T02:38:37;21.20;;;10.93;;
5428;SDS011;2737;52.386;9.980;2023-02-15T02:41:17;17.43;;;10.20;;
5428;SDS011;2737;52.386;9.980;2023-02-15T02:43:51;20.80;;;10.60;;
5428;SDS011;2737;52.386;9.980;2023-02-15T02:46:28;18.07;;;10.20;;
5428;SDS011;2737;52.386;9.980;2023-02-15T02:49:00;18.93;;;11.00;;
5428;SDS011;2737;52.386;9.980;2023-02-15T02:51:28;19.43;;;9.67;;
5428;SDS011;2737;52.386;9.980;2023-02-15T02:53:55;17.57;;;11.10;;
5428;SDS011;2737;52.386;9.980;2023-02-15T02:56:26;20.47;;;11.07;;
5428;SDS011;2737;52.386;9.980;2023-02-15T02:58:58;19.47;;;9.93;;
5428;SDS011;2737;52.386;9.980;2023-02-15T03:01:29;20.47;;;11.10;;
5428;SDS011;2737;52.386;9.980;2023-02-15T03:04:01;23.20;;;11.63;;
5428;SDS011;2737;52.386;9.980;2023-02-15T03:06:33;22.23;;;11.57;;
5428;SDS011;2737;52.386;9.980;2023-02-15T03:09:07;20.10;;;10.20;;
5428;SDS011;2737;52.386;9.980;2023-02-15T03:11:39;20.70;;;10.83;;
5428;SDS011;2737;52.386;9.980;2023-02-15T03:14:11;17.03;;;8.77;;
5428;SDS011;2737;52.386;9.980;2023-02-15T03:16:39;18.50;;;10.73;;
5428;SDS011;2737;52.386;9.980;2023-02-15T03:19:11;17.40;;;10.03;;
5428;SDS011;2737;52.386;9.980;2023-02-15T03:21:42;21.33;;;10.37;;
5428;SDS011;2737;52.386;9.980;2023-02-15T03:24:23;18.30;;;10.33;;
5428;SDS011;2737;52.386;9.980;2023-02-15T03:26:53;18.93;;;10.23;;
5428;SDS011;2737;52.386;9.980;2023-02-15T03:29:24;21.03;;;10.57;;
5428;SDS011;2737;52.386;9.980;2023-02-15T03:31:54;19.87;;;11.90;;
5428;SDS011;2737;52.386;9.980;2023-02-15T03:34:25;19.93;;;10.60;;
5428;SDS011;2737;52.386;9.980;2023-02-15T03:36:55;25.77;;;11.67;;
5428;SDS011;2737;52.386;9.980;2023-02-15T03:39:28;20.50;;;10.60;;
5428;SDS011;2737;52.386;9.980;2023-02-15T03:42:00;21.63;;;10.97;;
5428;SDS011;2737;52.386;9.980;2023-02-15T03:44:36;20.90;;;10.43;;
5428;SDS011;2737;52.386;9.980;2023-02-15T03:47:11;16.73;;;9.50;;
5428;SDS011;2737;52.386;9.980;2023-02-15T03:49:44;21.23;;;9.60;;
5428;SDS011;2737;52.386;9.980;2023-02-15T03:52:16;21.37;;;10.27;;
5428;SDS011;2737;52.386;9.980;2023-02-15T03:54:45;17.30;;;9.63;;
5428;SDS011;2737;52.386;9.980;2023-02-15T03:57:17;20.23;;;10.50;;
5428;SDS011;2737;52.386;9.980;2023-02-15T04:00:03;23.73;;;10.93;;
5428;SDS011;2737;52.386;9.980;2023-02-15T04:05:50;21.50;;;10.70;;
5428;SDS011;2737;52.386;9.980;2023-02-15T04:08:17;17.70;;;9.30;;
5428;SDS011;2737;52.386;9.980;2023-02-15T04:10:44;20.50;;;10.40;;
5428;SDS011;2737;52.386;9.980;2023-02-15T04:13:21;18.40;;;9.70;;
5428;SDS011;2737;52.386;9.980;2023-02-15T04:15:49;21.20;;;11.70;;
5428;SDS011;2737;52.386;9.980;2023-02-15T04:18:30;19.37;;;10.60;;
5428;SDS011;2737;52.386;9.980;2023-02-15T04:21:17;18.87;;;9.83;;
5428;SDS011;2737;52.386;9.980;2023-02-15T04:24:04;23.73;;;10.60;;
5428;SDS011;2737;52.386;9.980;2023-02-15T04:26:48;21.07;;;10.83;;
5428;SDS011;2737;52.386;9.980;2023-02-15T04:29:17;21.23;;;11.40;;
5428;SDS011;2737;52.386;9.980;2023-02-15T04:31:45;22.20;;;10.40;;
5428;SDS011;2737;52.386;9.980;2023-02-15T04:34:12;20.00;;;10.20;;
5428;SDS011;2737;52.386;9.980;2023-02-15T04:36:41;20.93;;;10.50;;
5428;SDS011;2737;52.386;9.980;2023-02-15T04:39:08;23.90;;;10.70;;
5428;SDS011;2737;52.386;9.980;2023-02-15T04:41:38;19.90;;;10.67;;
5428;SDS011;2737;52.386;9.980;2023-02-15T04:44:05;19.90;;;10.63;;
5428;SDS011;2737;52.386;9.980;2023-02-15T04:46:32;18.30;;;10.20;;
5428;SDS011;2737;52.386;9.980;2023-02-15T04:49:00;21.60;;;11.07;;
5428;SDS011;2737;52.386;9.980;2023-02-15T04:51:27;17.63;;;9.70;;
5428;SDS011;2737;52.386;9.980;2023-02-15T04:53:56;21.87;;;12.33;;
5428;SDS011;2737;52.386;9.980;2023-02-15T04:56:23;21.83;;;10.80;;
5428;SDS011;2737;52.386;9.980;2023-02-15T04:58:50;18.63;;;10.50;;
5428;SDS011;2737;52.386;9.980;2023-02-15T05:01:18;21.63;;;11.33;;
5428;SDS011;2737;52.386;9.980;2023-02-15T05:03:45;19.10;;;10.80;;
5428;SDS011;2737;52.386;9.980;2023-02-15T05:06:12;16.67;;;9.60;;
5428;SDS011;2737;52.386;9.980;2023-02-15T05:08:39;19.00;;;10.77;;
5428;SDS011;2737;52.386;9.980;2023-02-15T05:11:08;17.00;;;9.43;;
5428;SDS011;2737;52.386;9.980;2023-02-15T05:13:35;20.80;;;10.90;;
5428;SDS011;2737;52.386;9.980;2023-02-15T05:16:02;18.60;;;10.53;;
5428;SDS011;2737;52.386;9.980;2023-02-15T05:18:30;19.60;;;10.00;;
5428;SDS011;2737;52.386;9.980;2023-02-15T05:20:57;21.07;;;10.83;;
5428;SDS011;2737;52.386;9.980;2023-02-15T05:23:24;19.47;;;10.63;;
5428;SDS011;2737;52.386;9.980;2023-02-15T05:25:51;19.87;;;10.67;;
5428;SDS011;2737;52.386;9.980;2023-02-15T05:28:37;21.10;;;10.40;;
5428;SDS011;2737;52.386;9.980;2023-02-15T05:31:05;20.17;;;11.70;;
5428;SDS011;2737;52.386;9.980;2023-02-15T05:33:34;22.27;;;10.33;;
5428;SDS011;2737;52.386;9.980;2023-02-15T05:36:01;21.43;;;10.30;;
5428;SDS011;2737;52.386;9.980;2023-02-15T05:38:29;24.80;;;12.77;;
5428;SDS011;2737;52.386;9.980;2023-02-15T05:40:56;18.53;;;10.50;;
5428;SDS011;2737;52.386;9.980;2023-02-15T05:43:24;20.97;;;11.43;;
5428;SDS011;2737;52.386;9.980;2023-02-15T05:45:53;20.53;;;10.03;;
5428;SDS011;2737;52.386;9.980;2023-02-15T05:48:22;21.90;;;11.07;;
5428;SDS011;2737;52.386;9.980;2023-02-15T05:50:56;18.80;;;11.00;;
5428;SDS011;2737;52.386;9.980;2023-02-15T05:53:24;22.17;;;11.70;;
5428;SDS011;2737;52.386;9.980;2023-02-15T05:55:52;20.63;;;11.27;;
5428;SDS011;2737;52.386;9.980;2023-02-15T05:58:24;24.93;;;11.77;;
5428;SDS011;2737;52.386;9.980;2023-02-15T06:00:53;21.90;;;11.60;;
5428;SDS011;2737;52.386;9.980;2023-02-15T06:03:20;19.87;;;10.60;;
5428;SDS011;2737;52.386;9.980;2023-02-15T06:05:47;31.93;;;12.73;;
5428;SDS011;2737;52.386;9.980;2023-02-15T06:08:14;24.37;;;11.57;;
5428;SDS011;2737;52.386;9.980;2023-02-15T06:10:41;26.93;;;12.53;;
5428;SDS011;2737;52.386;9.980;2023-02-15T06:13:08;27.33;;;11.90;;
5428;SDS011;2737;52.386;9.980;2023-02-15T06:15:35;30.80;;;14.00;;
5428;SDS011;2737;52.386;9.980;2023-02-15T06:18:04;29.17;;;14.20;;
5428;SDS011;2737;52.386;9.980;2023-02-15T06:20:31;27.07;;;13.33;;
5428;SDS011;2737;52.386;9.980;2023-02-15T06:22:58;27.07;;;12.83;;
5428;SDS011;2737;52.386;9.980;2023-02-15T06:25:25;30.20;;;14.20;;
5428;SDS011;2737;52.386;9.980;2023-02-15T06:27:52;23.73;;;13.67;;
5428;SDS011;2737;52.386;9.980;2023-02-15T06:30:20;28.43;;;13.10;;
5428;SDS011;2737;52.386;9.980;2023-02-15T06:32:47;28.60;;;14.63;;
5428;SDS011;2737;52.386;9.980;2023-02-15T06:35:16;26.13;;;12.30;;
5428;SDS011;2737;52.386;9.980;2023-02-15T06:37:44;30.37;;;13.30;;
5428;SDS011;2737;52.386;9.980;2023-02-15T06:42:40;27.67;;;13.70;;
5428;SDS011;2737;52.386;9.980;2023-02-15T06:45:08;33.33;;;14.83;;
5428;SDS011;2737;52.386;9.980;2023-02-15T06:47:36;27.67;;;12.70;;
5428;SDS011;2737;52.386;9.980;2023-02-15T06:50:03;25.80;;;12.90;;
5428;SDS011;2737;52.386;9.980;2023-02-15T06:52:33;24.80;;;13.00;;
5428;SDS011;2737;52.386;9.980;2023-02-15T06:55:00;30.70;;;15.80;;
5428;SDS011;2737;52.386;9.980;2023-02-15T06:57:27;30.10;;;15.70;;
5428;SDS011;2737;52.386;9.980;2023-02-15T06:59:54;43.17;;;20.37;;
5428;SDS011;2737;52.386;9.980;2023-02-15T07:02:23;38.97;;;18.93;;
5428;SDS011;2737;52.386;9.980;2023-02-15T07:04:50;38.40;;;18.17;;
5428;SDS011;2737;52.386;9.980;2023-02-15T07:07:17;31.67;;;16.20;;
5428;SDS011;2737;52.386;9.980;2023-02-15T07:09:46;36.10;;;15.80;;
5428;SDS011;2737;52.386;9.980;2023-02-15T07:12:13;28.40;;;13.90;;
5428;SDS011;2737;52.386;9.980;2023-02-15T07:14:57;39.30;;;19.47;;
5428;SDS011;2737;52.386;9.980;2023-02-15T07:17:25;31.10;;;17.20;;
5428;SDS011;2737;52.386;9.980;2023-02-15T07:19:53;38.33;;;17.83;;
5428;SDS011;2737;52.386;9.980;2023-02-15T07:22:20;34.23;;;16.90;;
5428;SDS011;2737;52.386;9.980;2023-02-15T07:24:49;37.13;;;18.57;;
5428;SDS011;2737;52.386;9.980;2023-02-15T07:27:19;36.37;;;16.83;;
5428;SDS011;2737;52.386;9.980;2023-02-15T07:29:46;35.27;;;18.30;;
5428;SDS011;2737;52.386;9.980;2023-02-15T07:32:14;33.00;;;15.93;;
5428;SDS011;2737;52.386;9.980;2023-02-15T07:34:41;28.10;;;14.60;;
5428;SDS011;2737;52.386;9.980;2023-02-15T07:37:08;27.00;;;14.63;;
5428;SDS011;2737;52.386;9.980;2023-02-15T07:39:35;29.37;;;14.20;;
5428;SDS011;2737;52.386;9.980;2023-02-15T07:42:04;26.73;;;14.90;;
5428;SDS011;2737;52.386;9.980;2023-02-15T07:44:31;27.73;;;14.60;;
5428;SDS011;2737;52.386;9.980;2023-02-15T07:46:58;28.20;;;14.83;;
5428;SDS011;2737;52.386;9.980;2023-02-15T07:49:25;28.80;;;14.87;;
5428;SDS011;2737;52.386;9.980;2023-02-15T07:51:52;27.30;;;14.00;;
5428;SDS011;2737;52.386;9.980;2023-02-15T07:54:19;28.27;;;14.47;;
5428;SDS011;2737;52.386;9.980;2023-02-15T07:56:46;33.37;;;19.33;;
5428;SDS011;2737;52.386;9.980;2023-02-15T07:59:15;33.90;;;18.60;;
5428;SDS011;2737;52.386;9.980;2023-02-15T08:01:42;30.07;;;16.40;;
5428;SDS011;2737;52.386;9.980;2023-02-15T08:04:09;31.60;;;17.50;;
5428;SDS011;2737;52.386;9.980;2023-02-15T08:06:43;39.97;;;20.77;;
5428;SDS011;2737;52.386;9.980;2023-02-15T08:09:11;34.97;;;15.97;;
5428;SDS011;2737;52.386;9.980;2023-02-15T08:11:40;29.73;;;16.07;;
5428;SDS011;2737;52.386;9.980;2023-02-15T08:14:10;31.20;;;15.90;;
5428;SDS011;2737;52.386;9.980;2023-02-15T08:16:42;24.77;;;13.27;;
5428;SDS011;2737;52.386;9.980;2023-02-15T08:19:10;26.13;;;14.20;;
5428;SDS011;2737;52.386;9.980;2023-02-15T08:21:39;34.30;;;14.50;;
5428;SDS011;2737;52.386;9.980;2023-02-15T08:24:09;26.40;;;14.10;;
5428;SDS011;2737;52.386;9.980;2023-02-15T08:26:37;24.83;;;14.27;;
5428;SDS011;2737;52.386;9.980;2023-02-15T08:29:06;26.33;;;13.03;;
5428;SDS011;2737;52.386;9.980;2023-02-15T08:31:34;22.13;;;11.80;;
5428;SDS011;2737;52.386;9.980;2023-02-15T08:34:03;26.87;;;13.87;;
5428;SDS011;2737;52.386;9.980;2023-02-15T08:36:31;25.63;;;12.50;;
5428;SDS011;2737;52.386;9.980;2023-02-15T08:38:59;24.77;;;12.63;;
5428;SDS011;2737;52.386;9.980;2023-02-15T08:41:28;38.77;;;18.33;;
5428;SDS011;2737;52.386;9.980;2023-02-15T08:43:57;42.87;;;18.13;;
5428;SDS011;2737;52.386;9.980;2023-02-15T08:46:26;42.93;;;18.10;;
5428;SDS011;2737;52.386;9.980;2023-02-15T08:48:55;97.53;;;33.40;;
5428;SDS011;2737;52.386;9.980;2023-02-15T08:51:24;64.90;;;25.10;;
5428;SDS011;2737;52.386;9.980;2023-02-15T08:53:53;21.60;;;12.30;;
5428;SDS011;2737;52.386;9.980;2023-02-15T08:56:21;20.10;;;10.90;;
5428;SDS011;2737;52.386;9.980;2023-02-15T08:58:50;17.67;;;10.33;;
5428;SDS011;2737;52.386;9.980;2023-02-15T09:01:19;21.23;;;10.93;;
5428;SDS011;2737;52.386;9.980;2023-02-15T09:03:49;24.27;;;12.70;;
5428;SDS011;2737;52.386;9.980;2023-02-15T09:06:18;27.00;;;10.63;;
5428;SDS011;2737;52.386;9.980;2023-02-15T09:08:47;27.50;;;10.97;;
5428;SDS011;2737;52.386;9.980;2023-02-15T09:11:15;19.40;;;10.03;;
5428;SDS011;2737;52.386;9.980;2023-02-15T09:13:48;18.20;;;10.50;;
5428;SDS011;2737;52.386;9.980;2023-02-15T09:16:17;17.90;;;9.63;;
5428;SDS011;2737;52.386;9.980;2023-02-15T09:18:44;20.00;;;9.90;;
5428;SDS011;2737;52.386;9.980;2023-02-15T09:21:12;15.33;;;9.53;;
5428;SDS011;2737;52.386;9.980;2023-02-15T09:23:41;24.40;;;10.17;;
5428;SDS011;2737;52.386;9.980;2023-02-15T09:26:10;26.83;;;13.20;;
5428;SDS011;2737;52.386;9.980;2023-02-15T09:28:38;18.50;;;11.60;;
5428;SDS011;2737;52.386;9.980;2023-02-15T09:31:09;17.77;;;9.97;;
5428;SDS011;2737;52.386;9.980;2023-02-15T09:33:38;25.93;;;12.30;;
5428;SDS011;2737;52.386;9.980;2023-02-15T09:36:13;16.20;;;9.70;;
5428;SDS011;2737;52.386;9.980;2023-02-15T09:38:45;20.13;;;9.47;;
5428;SDS011;2737;52.386;9.980;2023-02-15T09:41:19;14.73;;;8.50;;
5428;SDS011;2737;52.386;9.980;2023-02-15T09:44:01;16.20;;;9.30;;
5428;SDS011;2737;52.386;9.980;2023-02-15T09:46:43;21.37;;;11.93;;
5428;SDS011;2737;52.386;9.980;2023-02-15T09:49:29;16.67;;;9.73;;
5428;SDS011;2737;52.386;9.980;2023-02-15T09:55:09;14.47;;;8.63;;
5428;SDS011;2737;52.386;9.980;2023-02-15T09:57:53;16.90;;;9.03;;
5428;SDS011;2737;52.386;9.980;2023-02-15T10:00:29;14.60;;;8.70;;
5428;SDS011;2737;52.386;9.980;2023-02-15T10:03:06;15.00;;;9.30;;
5428;SDS011;2737;52.386;9.980;2023-02-15T10:05:56;14.63;;;9.60;;
5428;SDS011;2737;52.386;9.980;2023-02-15T10:08:43;16.93;;;8.80;;
5428;SDS011;2737;52.386;9.980;2023-02-15T10:11:21;14.53;;;8.60;;
5428;SDS011;2737;52.386;9.980;2023-02-15T10:14:15;12.30;;;7.20;;
5428;SDS011;2737;52.386;9.980;2023-02-15T10:17:05;16.40;;;8.83;;
5428;SDS011;2737;52.386;9.980;2023-02-15T10:19:47;12.67;;;7.80;;
5428;SDS011;2737;52.386;9.980;2023-02-15T10:22:28;11.67;;;7.50;;
5428;SDS011;2737;52.386;9.980;2023-02-15T10:25:07;15.97;;;9.50;;
5428;SDS011;2737;52.386;9.980;2023-02-15T10:27:46;16.43;;;10.00;;
5428;SDS011;2737;52.386;9.980;2023-02-15T10:30:16;14.87;;;9.10;;
5428;SDS011;2737;52.386;9.980;2023-02-15T10:32:55;15.23;;;9.30;;
5428;SDS011;2737;52.386;9.980;2023-02-15T10:35:28;20.43;;;9.20;;
5428;SDS011;2737;52.386;9.980;2023-02-15T10:38:06;16.97;;;9.20;;
5428;SDS011;2737;52.386;9.980;2023-02-15T10:40:40;13.87;;;7.90;;
5428;SDS011;2737;52.386;9.980;2023-02-15T10:43:20;22.80;;;11.47;;
5428;SDS011;2737;52.386;9.980;2023-02-15T10:46:10;14.93;;;9.53;;
5428;SDS011;2737;52.386;9.980;2023-02-15T10:51:49;17.33;;;8.90;;
5428;SDS011;2737;52.386;9.980;2023-02-15T10:54:27;16.40;;;9.40;;
5428;SDS011;2737;52.386;9.980;2023-02-15T10:57:02;17.60;;;8.40;;
5428;SDS011;2737;52.386;9.980;2023-02-15T10:59:39;15.10;;;8.60;;
5428;SDS011;2737;52.386;9.980;2023-02-15T11:02:20;15.30;;;7.93;;
5428;SDS011;2737;52.386;9.980;2023-02-15T11:04:59;15.97;;;9.60;;
5428;SDS011;2737;52.386;9.980;2023-02-15T11:07:37;24.33;;;11.10;;
5428;SDS011;2737;52.386;9.980;2023-02-15T11:10:11;14.73;;;9.57;;
5428;SDS011;2737;52.386;9.980;2023-02-15T11:12:48;15.63;;;9.50;;
5428;SDS011;2737;52.386;9.980;2023-02-15T11:15:18;17.90;;;10.13;;
5428;SDS011;2737;52.386;9.980;2023-02-15T11:17:53;15.93;;;9.00;;
5428;SDS011;2737;52.386;9.980;2023-02-15T11:20:25;15.87;;;9.13;;
5428;SDS011;2737;52.386;9.980;2023-02-15T11:22:56;16.27;;;9.40;;
5428;SDS011;2737;52.386;9.980;2023-02-15T11:25:25;14.60;;;8.90;;
5428;SDS011;2737;52.386;9.980;2023-02-15T11:27:55;11.60;;;7.67;;
5428;SDS011;2737;52.386;9.980;2023-02-15T11:30:23;12.33;;;7.37;;
5428;SDS011;2737;52.386;9.980;2023-02-15T11:32:55;15.33;;;8.67;;
5428;SDS011;2737;52.386;9.980;2023-02-15T11:35:27;14.53;;;8.03;;
5428;SDS011;2737;52.386;9.980;2023-02-15T11:37:59;12.40;;;7.17;;
5428;SDS011;2737;52.386;9.980;2023-02-15T11:40:32;12.50;;;8.00;;
5428;SDS011;2737;52.386;9.980;2023-02-15T11:43:03;12.20;;;7.80;;
5428;SDS011;2737;52.386;9.980;2023-02-15T11:45:33;16.30;;;7.70;;
5428;SDS011;2737;52.386;9.980;2023-02-15T11:48:08;15.53;;;9.73;;
5428;SDS011;2737;52.386;9.980;2023-02-15T11:50:37;15.50;;;8.17;;
5428;SDS011;2737;52.386;9.980;2023-02-15T11:53:09;10.10;;;6.63;;
5428;SDS011;2737;52.386;9.980;2023-02-15T11:55:38;16.50;;;8.10;;
5428;SDS011;2737;52.386;9.980;2023-02-15T11:58:09;15.20;;;9.03;;
5428;SDS011;2737;52.386;9.980;2023-02-15T12:00:47;14.60;;;8.60;;
5428;SDS011;2737;52.386;9.980;2023-02-15T12:03:21;16.27;;;8.90;;
5428;SDS011;2737;52.386;9.980;2023-02-15T12:05:58;13.83;;;7.83;;
5428;SDS011;2737;52.386;9.980;2023-02-15T12:08:30;14.17;;;9.10;;
5428;SDS011;2737;52.386;9.980;2023-02-15T12:11:05;20.03;;;8.83;;
5428;SDS011;2737;52.386;9.980;2023-02-15T12:13:37;14.53;;;9.17;;
5428;SDS011;2737;52.386;9.980;2023-02-15T12:16:21;15.83;;;8.43;;
5428;SDS011;2737;52.386;9.980;2023-02-15T12:18:50;11.17;;;7.53;;
5428;SDS011;2737;52.386;9.980;2023-02-15T12:21:24;14.07;;;8.40;;
5428;SDS011;2737;52.386;9.980;2023-02-15T12:23:55;14.30;;;8.40;;
5428;SDS011;2737;52.386;9.980;2023-02-15T12:26:24;18.00;;;8.80;;
5428;SDS011;2737;52.386;9.980;2023-02-15T12:28:53;13.83;;;8.60;;
5428;SDS011;2737;52.386;9.980;2023-02-15T12:31:24;12.40;;;7.57;;
5428;SDS011;2737;52.386;9.980;2023-02-15T12:33:59;14.50;;;9.47;;
5428;SDS011;2737;52.386;9.980;2023-02-15T12:36:29;13.97;;;8.97;;
5428;SDS011;2737;52.386;9.980;2023-02-15T12:41:59;18.10;;;9.27;;
5428;SDS011;2737;52.386;9.980;2023-02-15T12:44:29;23.17;;;9.90;;
5428;SDS011;2737;52.386;9.980;2023-02-15T12:46:58;17.60;;;9.53;;
5428;SDS011;2737;52.386;9.980;2023-02-15T12:49:28;15.77;;;8.53;;
5428;SDS011;2737;52.386;9.980;2023-02-15T12:51:57;13.10;;;8.40;;
5428;SDS011;2737;52.386;9.980;2023-02-15T12:54:29;14.47;;;8.90;;
5428;SDS011;2737;52.386;9.980;2023-02-15T12:57:01;14.17;;;8.63;;
5428;SDS011;2737;52.386;9.980;2023-02-15T12:59:47;14.70;;;10.00;;
5428;SDS011;2737;52.386;9.980;2023-02-15T13:02:16;13.27;;;9.07;;
5428;SDS011;2737;52.386;9.980;2023-02-15T13:04:49;11.50;;;8.47;;
5428;SDS011;2737;52.386;9.980;2023-02-15T13:07:17;14.23;;;8.20;;
5428;SDS011;2737;52.386;9.980;2023-02-15T13:09:45;13.67;;;8.80;;
5428;SDS011;2737;52.386;9.980;2023-02-15T13:12:18;16.50;;;8.60;;
5428;SDS011;2737;52.386;9.980;2023-02-15T13:14:48;12.50;;;7.70;;
5428;SDS011;2737;52.386;9.980;2023-02-15T13:17:18;12.10;;;7.67;;
5428;SDS011;2737;52.386;9.980;2023-02-15T13:19:53;14.40;;;9.33;;
5428;SDS011;2737;52.386;9.980;2023-02-15T13:22:21;14.37;;;8.37;;
5428;SDS011;2737;52.386;9.980;2023-02-15T13:24:53;13.60;;;8.63;;
5428;SDS011;2737;52.386;9.980;2023-02-15T13:27:24;12.33;;;8.17;;
5428;SDS011;2737;52.386;9.980;2023-02-15T13:29:58;15.27;;;9.30;;
5428;SDS011;2737;52.386;9.980;2023-02-15T13:32:30;14.87;;;8.60;;
5428;SDS011;2737;52.386;9.980;2023-02-15T13:35:03;14.67;;;9.10;;
5428;SDS011;2737;52.386;9.980;2023-02-15T13:37:45;13.90;;;8.53;;
5428;SDS011;2737;52.386;9.980;2023-02-15T13:40:27;13.50;;;8.50;;
5428;SDS011;2737;52.386;9.980;2023-02-15T13:43:00;17.33;;;8.93;;
5428;SDS011;2737;52.386;9.980;2023-02-15T13:45:37;14.63;;;9.33;;
5428;SDS011;2737;52.386;9.980;2023-02-15T13:48:12;16.00;;;9.17;;
5428;SDS011;2737;52.386;9.980;2023-02-15T13:50:52;17.13;;;9.87;;
5428;SDS011;2737;52.386;9.980;2023-02-15T13:53:34;25.43;;;10.13;;
5428;SDS011;2737;52.386;9.980;2023-02-15T13:56:12;16.30;;;8.57;;
5428;SDS011;2737;52.386;9.980;2023-02-15T13:58:51;15.00;;;9.13;;
5428;SDS011;2737;52.386;9.980;2023-02-15T14:01:32;14.70;;;9.60;;
5428;SDS011;2737;52.386;9.980;2023-02-15T14:04:22;15.47;;;9.40;;
5428;SDS011;2737;52.386;9.980;2023-02-15T14:07:27;14.27;;;9.13;;
5428;SDS011;2737;52.386;9.980;2023-02-15T14:10:25;16.33;;;9.30;;
5428;SDS011;2737;52.386;9.980;2023-02-15T14:13:31;13.13;;;8.60;;
5428;SDS011;2737;52.386;9.980;2023-02-15T14:16:11;16.40;;;10.10;;
5428;SDS011;2737;52.386;9.980;2023-02-15T14:18:46;14.73;;;8.50;;
5428;SDS011;2737;52.386;9.980;2023-02-15T14:21:19;16.23;;;10.07;;
5428;SDS011;2737;52.386;9.980;2023-02-15T14:23:57;21.70;;;9.73;;
5428;SDS011;2737;52.386;9.980;2023-02-15T14:26:36;13.63;;;9.07;;
5428;SDS011;2737;52.386;9.980;2023-02-15T14:29:13;16.67;;;9.77;;
5428;SDS011;2737;52.386;9.980;2023-02-15T14:31:47;16.23;;;8.30;;
5428;SDS011;2737;52.386;9.980;2023-02-15T14:34:20;13.63;;;9.80;;
5428;SDS011;2737;52.386;9.980;2023-02-15T14:36:51;17.33;;;9.13;;
5428;SDS011;2737;52.386;9.980;2023-02-15T14:39:25;17.60;;;9.47;;
5428;SDS011;2737;52.386;9.980;2023-02-15T14:42:18;13.43;;;9.57;;
5428;SDS011;2737;52.386;9.980;2023-02-15T14:44:53;17.57;;;9.70;;
5428;SDS011;2737;52.386;9.980;2023-02-15T14:47:31;16.60;;;9.43;;
5428;SDS011;2737;52.386;9.980;2023-02-15T14:53:22;16.00;;;9.40;;
5428;SDS011;2737;52.386;9.980;2023-02-15T15:01:41;13.93;;;8.73;;
5428;SDS011;2737;52.386;9.980;2023-02-15T15:04:22;14.90;;;8.93;;
5428;SDS011;2737;52.386;9.980;2023-02-15T15:06:58;11.37;;;7.70;;
5428;SDS011;2737;52.386;9.980;2023-02-15T15:09:29;16.27;;;8.90;;
5428;SDS011;2737;52.386;9.980;2023-02-15T15:12:13;13.03;;;8.33;;
5428;SDS011;2737;52.386;9.980;2023-02-15T15:14:56;11.73;;;7.90;;
5428;SDS011;2737;52.386;9.980;2023-02-15T15:20:43;13.00;;;8.40;;
5428;SDS011;2737;52.386;9.980;2023-02-15T15:26:22;19.30;;;9.93;;
5428;SDS011;2737;52.386;9.980;2023-02-15T15:28:56;14.50;;;9.20;;
5428;SDS011;2737;52.386;9.980;2023-02-15T15:31:30;15.17;;;9.20;;
5428;SDS011;2737;52.386;9.980;2023-02-15T15:43:30;13.60;;;9.10;;
5428;SDS011;2737;52.386;9.980;2023-02-15T15:46:27;22.73;;;10.63;;
5428;SDS011;2737;52.386;9.980;2023-02-15T15:49:15;15.37;;;9.97;;
5428;SDS011;2737;52.386;9.980;2023-02-15T15:51:44;13.37;;;9.17;;
5428;SDS011;2737;52.386;9.980;2023-02-15T15:54:14;14.03;;;9.60;;
5428;SDS011;2737;52.386;9.980;2023-02-15T15:56:44;19.30;;;9.93;;
5428;SDS011;2737;52.386;9.980;2023-02-15T15:59:17;16.17;;;9.50;;
5428;SDS011;2737;52.386;9.980;2023-02-15T16:01:48;20.83;;;10.17;;
5428;SDS011;2737;52.386;9.980;2023-02-15T16:04:22;16.00;;;9.70;;
5428;SDS011;2737;52.386;9.980;2023-02-15T16:06:51;17.07;;;10.40;;